Time;durP1;ratioP1;P1;durP2;ratioP2;P2;SDS_P1;SDS_P2;PMS_P1;PMS_P2;Temp;Humidity;BMP_temperature;BMP_pressure;BME280_temperature;BME280_humidity;BME280_pressure;Samples;Min_cycle;Max_cycle;Signal;HPM_P1;HPM_P2
2021/12/15 00:02:23;;;;;;;;;50.00;42.25;;;;;;;;5074813;28;45412;-49
2021/12/15 00:04:50;;;;;;;;;58.25;46.50;;;;;;;;5075951;27;45249;-48
2021/12/15 00:07:16;;;;;;;;;62.75;50.25;;;;;;;;5062911;27;45287;-50
2021/12/15 00:09:41;;;;;;;;;58.00;48.25;;;;;;;;5056232;28;45414;-51
2021/12/15 00:12:07;;;;;;;;;53.00;45.50;;;;;;;;5069982;28;45333;-50
2021/12/15 00:14:33;;;;;;;;;50.75;42.50;;;;;;;;5066667;28;45362;-48
2021/12/15 00:16:59;;;;;;;;;61.00;47.75;;;;;;;;5055905;28;45529;-46
2021/12/15 00:19:26;;;;;;;;;57.75;47.75;;;;;;;;5070681;28;45878;-49
2021/12/15 00:21:51;;;;;;;;;61.00;45.00;;;;;;;;5075455;27;45388;-46
2021/12/15 00:24:16;;;;;;;;;59.00;47.50;;;;;;;;5063669;27;45778;-48
2021/12/15 00:26:41;;;;;;;;;59.00;47.00;;;;;;;;5062989;28;45567;-47
2021/12/15 00:29:07;;;;;;;;;60.50;48.75;;;;;;;;5075467;28;45354;-48
2021/12/15 00:31:33;;;;;;;;;60.50;49.75;;;;;;;;5074555;27;45571;-46
2021/12/15 00:34:00;;;;;;;;;63.25;50.00;;;;;;;;5056989;28;45370;-48
2021/12/15 00:36:25;;;;;;;;;59.25;48.50;;;;;;;;5058750;28;45571;-47
2021/12/15 00:38:50;;;;;;;;;56.00;46.75;;;;;;;;5055180;28;46270;-47
2021/12/15 00:41:16;;;;;;;;;63.00;47.75;;;;;;;;5055288;28;45328;-48
2021/12/15 00:43:41;;;;;;;;;57.00;48.00;;;;;;;;5058262;28;45311;-49
2021/12/15 00:46:06;;;;;;;;;54.50;45.00;;;;;;;;5060035;27;45457;-49
2021/12/15 00:48:32;;;;;;;;;60.75;48.50;;;;;;;;5074683;27;46434;-50
2021/12/15 00:50:57;;;;;;;;;52.50;43.25;;;;;;;;5073819;28;45370;-46
2021/12/15 00:53:22;;;;;;;;;58.50;48.00;;;;;;;;5056635;28;45466;-46
2021/12/15 00:55:48;;;;;;;;;59.00;47.50;;;;;;;;5054975;28;45298;-46
2021/12/15 00:58:14;;;;;;;;;55.00;46.50;;;;;;;;5054616;28;46394;-47
2021/12/15 01:00:43;;;;;;;;;59.75;47.25;;;;;;;;5059828;28;45321;-47
2021/12/15 01:03:08;;;;;;;;;55.75;43.00;;;;;;;;5056349;28;45387;-48
2021/12/15 01:05:35;;;;;;;;;56.50;44.75;;;;;;;;5060449;27;45457;-48
2021/12/15 01:08:02;;;;;;;;;55.00;46.50;;;;;;;;5058269;28;45397;-50
2021/12/15 01:10:41;;;;;;;;;57.25;48.50;;;;;;;;5057761;28;45362;-47
2021/12/15 01:21:02;;;;;;;;;56.75;44.00;;;;;;;;5060399;28;45382;-50
2021/12/15 01:23:29;;;;;;;;;63.75;49.00;;;;;;;;5078557;27;45448;-50
2021/12/15 01:26:03;;;;;;;;;51.75;41.25;;;;;;;;5070997;27;45695;-52
2021/12/15 01:28:29;;;;;;;;;54.50;43.00;;;;;;;;5062677;27;46079;-51
2021/12/15 01:30:55;;;;;;;;;53.50;45.25;;;;;;;;5058871;28;45390;-47
2021/12/15 01:33:21;;;;;;;;;50.00;43.00;;;;;;;;5077989;27;45335;-52
2021/12/15 01:35:48;;;;;;;;;44.50;38.25;;;;;;;;5078418;27;45340;-48
2021/12/15 01:38:14;;;;;;;;;54.75;43.00;;;;;;;;5061621;28;46773;-48
2021/12/15 01:40:42;;;;;;;;;47.00;39.75;;;;;;;;5062585;28;45338;-48
2021/12/15 01:43:15;;;;;;;;;53.00;43.25;;;;;;;;5072140;27;45419;-48
2021/12/15 01:48:25;;;;;;;;;49.50;41.75;;;;;;;;5071270;28;45855;-49
2021/12/15 01:50:51;;;;;;;;;54.00;44.25;;;;;;;;5062647;27;45232;-50
2021/12/15 01:53:16;;;;;;;;;45.00;39.75;;;;;;;;5074019;28;45207;-48
2021/12/15 01:55:42;;;;;;;;;48.25;40.25;;;;;;;;5059128;27;45538;-49
2021/12/15 01:58:07;;;;;;;;;49.25;41.50;;;;;;;;5070972;28;46259;-47
2021/12/15 02:00:35;;;;;;;;;45.00;40.25;;;;;;;;5076107;27;45243;-50
2021/12/15 02:03:01;;;;;;;;;52.00;41.75;;;;;;;;5073207;27;46653;-52
2021/12/15 02:05:27;;;;;;;;;49.00;40.25;;;;;;;;5076479;28;45675;-51
2021/12/15 02:07:52;;;;;;;;;52.75;44.00;;;;;;;;5077655;27;45425;-50
2021/12/15 02:10:20;;;;;;;;;51.00;40.75;;;;;;;;5077668;27;45332;-48
2021/12/15 02:12:46;;;;;;;;;51.00;43.75;;;;;;;;5077893;27;45329;-48
2021/12/15 02:15:16;;;;;;;;;57.75;45.00;;;;;;;;5076983;28;45543;-50
2021/12/15 02:17:42;;;;;;;;;56.50;43.50;;;;;;;;5076397;28;46230;-48
2021/12/15 02:20:09;;;;;;;;;48.50;41.50;;;;;;;;5077874;27;45415;-47
2021/12/15 02:22:35;;;;;;;;;52.75;43.75;;;;;;;;5077359;27;45330;-51
2021/12/15 02:25:02;;;;;;;;;48.25;42.00;;;;;;;;5077634;27;45628;-47
2021/12/15 02:27:33;;;;;;;;;51.00;43.00;;;;;;;;5076699;27;46163;-46
2021/12/15 02:30:05;;;;;;;;;48.00;42.25;;;;;;;;5076929;27;45475;-45
2021/12/15 02:32:46;;;;;;;;;46.50;39.50;;;;;;;;5077255;27;45271;-47
2021/12/15 02:38:02;;;;;;;;;43.25;38.25;;;;;;;;5052930;27;45552;-46
2021/12/15 02:40:28;;;;;;;;;44.00;38.75;;;;;;;;5077238;27;45327;-47
2021/12/15 02:42:53;;;;;;;;;44.25;39.00;;;;;;;;5076680;27;45538;-46
2021/12/15 02:45:21;;;;;;;;;47.25;40.00;;;;;;;;5076586;27;45338;-46
2021/12/15 02:47:47;;;;;;;;;50.00;42.25;;;;;;;;5076269;27;45622;-48
2021/12/15 02:50:15;;;;;;;;;42.00;37.25;;;;;;;;5076410;27;45417;-45
2021/12/15 02:52:40;;;;;;;;;45.75;39.50;;;;;;;;5064271;27;45452;-46
2021/12/15 02:55:06;;;;;;;;;47.50;40.25;;;;;;;;5057832;28;45498;-49
2021/12/15 02:57:31;;;;;;;;;49.50;39.25;;;;;;;;5060052;27;46464;-48
2021/12/15 03:00:02;;;;;;;;;46.00;39.25;;;;;;;;5057306;28;45438;-46
2021/12/15 03:05:19;;;;;;;;;46.50;39.75;;;;;;;;5060560;27;45252;-45
2021/12/15 03:15:41;;;;;;;;;47.25;38.25;;;;;;;;5069133;27;45442;-46
2021/12/15 03:18:11;;;;;;;;;56.25;42.25;;;;;;;;5059968;27;45368;-46
2021/12/15 03:20:46;;;;;;;;;50.25;40.25;;;;;;;;5068305;27;45303;-46
2021/12/15 03:23:12;;;;;;;;;47.75;40.50;;;;;;;;5075904;28;45289;-46
2021/12/15 03:25:38;;;;;;;;;51.75;42.00;;;;;;;;5075030;27;45458;-46
2021/12/15 03:33:43;;;;;;;;;48.25;40.25;;;;;;;;5055788;28;45328;-48
2021/12/15 03:36:12;;;;;;;;;49.25;42.50;;;;;;;;5056182;28;45289;-47
2021/12/15 03:38:38;;;;;;;;;51.00;44.25;;;;;;;;5074934;28;46413;-47
2021/12/15 03:41:05;;;;;;;;;45.75;39.00;;;;;;;;5070201;27;45513;-47
2021/12/15 03:43:31;;;;;;;;;46.00;40.25;;;;;;;;5069355;27;45349;-48
2021/12/15 03:46:02;;;;;;;;;46.25;40.50;;;;;;;;5074686;27;45284;-48
2021/12/15 03:48:29;;;;;;;;;50.50;40.75;;;;;;;;5070948;27;46313;-49
2021/12/15 03:50:56;;;;;;;;;47.50;39.75;;;;;;;;5061514;27;45452;-49
2021/12/15 03:53:22;;;;;;;;;39.75;38.00;;;;;;;;5062785;27;45566;-52
2021/12/15 03:55:47;;;;;;;;;43.50;37.25;;;;;;;;5062282;27;45562;-48
2021/12/15 03:58:14;;;;;;;;;46.00;39.75;;;;;;;;5062126;27;45991;-46
2021/12/15 04:00:43;;;;;;;;;38.75;35.50;;;;;;;;5071536;28;45233;-46
2021/12/15 04:03:22;;;;;;;;;37.50;36.00;;;;;;;;5070994;28;45515;-47
2021/12/15 04:05:47;;;;;;;;;47.00;37.75;;;;;;;;5075395;28;45362;-47
2021/12/15 04:08:13;;;;;;;;;42.25;35.00;;;;;;;;5070295;28;46250;-51
2021/12/15 04:10:38;;;;;;;;;36.00;31.25;;;;;;;;5063691;28;45491;-47
2021/12/15 04:13:03;;;;;;;;;37.50;34.75;;;;;;;;5075631;28;45317;-46
2021/12/15 04:15:32;;;;;;;;;39.25;36.75;;;;;;;;5074077;28;45490;-49
2021/12/15 04:17:58;;;;;;;;;38.50;35.75;;;;;;;;5075142;27;45492;-47
2021/12/15 04:20:32;;;;;;;;;38.00;34.00;;;;;;;;5075604;27;45492;-50
2021/12/15 04:22:58;;;;;;;;;34.25;32.50;;;;;;;;5074013;27;45359;-48
2021/12/15 04:25:26;;;;;;;;;41.50;36.25;;;;;;;;5075433;27;45435;-47
2021/12/15 04:27:57;;;;;;;;;41.00;36.00;;;;;;;;5054896;28;45578;-47
2021/12/15 04:30:24;;;;;;;;;39.50;37.00;;;;;;;;5063978;28;45713;-47
2021/12/15 04:32:49;;;;;;;;;28.75;25.00;;;;;;;;5063002;27;45379;-46
2021/12/15 04:35:15;;;;;;;;;33.75;33.25;;;;;;;;5055623;28;45425;-50
2021/12/15 04:37:42;;;;;;;;;40.75;35.50;;;;;;;;5074003;28;45647;-50
2021/12/15 04:40:08;;;;;;;;;34.25;32.75;;;;;;;;5076626;27;45464;-46
2021/12/15 04:42:34;;;;;;;;;36.25;36.00;;;;;;;;5060543;27;45318;-47
2021/12/15 04:44:59;;;;;;;;;36.25;30.50;;;;;;;;5076260;27;45366;-49
2021/12/15 04:47:25;;;;;;;;;32.25;31.00;;;;;;;;5071426;27;45989;-46
2021/12/15 04:49:52;;;;;;;;;36.25;30.75;;;;;;;;5078606;28;45385;-50
2021/12/15 04:52:18;;;;;;;;;41.25;37.25;;;;;;;;5062890;27;45464;-51
2021/12/15 04:54:44;;;;;;;;;35.50;32.25;;;;;;;;5078325;27;45651;-47
2021/12/15 04:57:10;;;;;;;;;36.50;34.75;;;;;;;;5067622;27;45381;-48
2021/12/15 04:59:35;;;;;;;;;39.00;35.00;;;;;;;;5058817;28;45327;-47
2021/12/15 05:02:01;;;;;;;;;45.00;38.00;;;;;;;;5058132;28;45299;-47
2021/12/15 05:04:27;;;;;;;;;41.00;35.75;;;;;;;;5066865;27;45525;-47
2021/12/15 05:06:52;;;;;;;;;36.25;33.00;;;;;;;;5066507;27;45480;-47
2021/12/15 05:09:18;;;;;;;;;37.25;35.50;;;;;;;;5078417;27;45449;-50
2021/12/15 05:11:44;;;;;;;;;33.75;31.00;;;;;;;;5076440;28;45394;-45
2021/12/15 05:14:10;;;;;;;;;35.25;32.25;;;;;;;;5065646;27;45504;-45
2021/12/15 05:16:35;;;;;;;;;34.25;33.25;;;;;;;;5078162;27;46321;-47
2021/12/15 05:19:00;;;;;;;;;36.25;34.50;;;;;;;;5078883;27;45398;-49
2021/12/15 05:21:26;;;;;;;;;37.50;34.75;;;;;;;;5062137;27;45344;-45
2021/12/15 05:23:58;;;;;;;;;38.75;34.75;;;;;;;;5058949;28;45374;-46
2021/12/15 05:26:23;;;;;;;;;37.00;32.50;;;;;;;;5066559;27;46992;-48
2021/12/15 05:28:49;;;;;;;;;37.25;35.00;;;;;;;;5077870;27;45433;-49
2021/12/15 05:31:14;;;;;;;;;39.75;29.00;;;;;;;;5077105;27;45256;-47
2021/12/15 05:33:39;;;;;;;;;33.75;30.50;;;;;;;;5075027;28;45523;-47
2021/12/15 05:36:05;;;;;;;;;35.00;32.50;;;;;;;;5063664;28;46146;-47
2021/12/15 05:38:30;;;;;;;;;37.25;35.25;;;;;;;;5078381;27;45233;-51
2021/12/15 05:40:57;;;;;;;;;36.75;34.25;;;;;;;;5072773;27;45473;-46
2021/12/15 05:43:23;;;;;;;;;30.25;29.50;;;;;;;;5077754;27;45476;-46
2021/12/15 05:45:50;;;;;;;;;35.50;32.00;;;;;;;;5075986;27;45445;-46
2021/12/15 05:48:15;;;;;;;;;34.75;31.25;;;;;;;;5058321;27;45514;-51
2021/12/15 05:50:43;;;;;;;;;31.25;31.25;;;;;;;;5057855;28;45416;-48
2021/12/15 05:53:08;;;;;;;;;43.00;35.25;;;;;;;;5058186;28;45526;-46
2021/12/15 05:55:34;;;;;;;;;29.50;27.25;;;;;;;;5057145;28;46156;-46
2021/12/15 05:58:00;;;;;;;;;37.50;31.50;;;;;;;;5058861;28;45381;-47
2021/12/15 06:00:27;;;;;;;;;36.75;34.00;;;;;;;;5075789;27;45374;-45
2021/12/15 06:02:53;;;;;;;;;36.50;30.50;;;;;;;;5057622;28;45493;-45
2021/12/15 06:05:19;;;;;;;;;34.50;32.00;;;;;;;;5065047;28;45354;-46
2021/12/15 06:07:44;;;;;;;;;40.25;34.00;;;;;;;;5057012;28;45466;-47
2021/12/15 06:10:13;;;;;;;;;34.75;30.25;;;;;;;;5056200;28;45280;-46
2021/12/15 06:12:39;;;;;;;;;34.00;32.00;;;;;;;;5077331;27;45552;-48
2021/12/15 06:15:05;;;;;;;;;36.75;30.00;;;;;;;;5077673;27;46117;-49
2021/12/15 06:17:30;;;;;;;;;36.25;32.00;;;;;;;;5069136;27;45472;-47
2021/12/15 06:19:56;;;;;;;;;27.25;27.00;;;;;;;;5077937;27;45285;-48
2021/12/15 06:22:26;;;;;;;;;29.75;26.00;;;;;;;;5060074;28;45554;-47
2021/12/15 06:24:52;;;;;;;;;39.25;33.00;;;;;;;;5057408;28;46475;-49
2021/12/15 06:27:19;;;;;;;;;36.25;34.00;;;;;;;;5072691;27;45357;-45
2021/12/15 06:29:45;;;;;;;;;36.75;29.75;;;;;;;;5061085;27;45322;-48
2021/12/15 06:32:11;;;;;;;;;31.00;31.00;;;;;;;;5058637;27;45592;-51
2021/12/15 06:34:36;;;;;;;;;29.50;26.75;;;;;;;;5060970;28;45338;-47
2021/12/15 06:37:01;;;;;;;;;36.00;30.50;;;;;;;;5077022;27;45303;-47
2021/12/15 06:39:27;;;;;;;;;32.00;30.25;;;;;;;;5077057;27;45353;-50
2021/12/15 06:41:52;;;;;;;;;32.50;32.50;;;;;;;;5064950;27;45596;-48
2021/12/15 06:44:17;;;;;;;;;35.50;33.25;;;;;;;;5060857;28;45607;-49
2021/12/15 06:47:23;;;;;;;;;29.25;27.25;;;;;;;;5057721;28;45477;-49
2021/12/15 07:00:38;;;;;;;;;29.50;28.00;;;;;;;;5068444;28;45505;-49
2021/12/15 07:03:03;;;;;;;;;31.75;31.75;;;;;;;;5073096;27;45622;-49
2021/12/15 07:05:29;;;;;;;;;25.75;25.75;;;;;;;;5056594;28;46190;-48
2021/12/15 07:07:55;;;;;;;;;34.00;30.00;;;;;;;;5074941;27;45380;-52
2021/12/15 07:10:23;;;;;;;;;31.25;30.25;;;;;;;;5076680;27;45444;-49
2021/12/15 07:12:49;;;;;;;;;32.50;29.00;;;;;;;;5076647;27;45580;-48
2021/12/15 07:15:14;;;;;;;;;38.50;33.00;;;;;;;;5062218;28;45382;-50
2021/12/15 07:17:40;;;;;;;;;35.50;31.25;;;;;;;;5056547;28;45371;-50
2021/12/15 07:20:29;;;;;;;;;30.00;25.25;;;;;;;;5056587;28;45350;-48
2021/12/15 07:22:52;;;;;;;;;35.25;30.25;;;;;;;;5056608;28;45564;-47
2021/12/15 07:25:18;;;;;;;;;33.25;29.25;;;;;;;;5054703;28;45392;-58
2021/12/15 07:27:43;;;;;;;;;37.25;31.00;;;;;;;;5072295;28;45492;-55
2021/12/15 07:30:09;;;;;;;;;34.00;31.00;;;;;;;;5076650;27;45335;-52
2021/12/15 07:32:35;;;;;;;;;29.00;27.25;;;;;;;;5077032;28;45588;-50
2021/12/15 07:35:00;;;;;;;;;34.75;30.75;;;;;;;;5075954;28;45468;-54
2021/12/15 07:37:25;;;;;;;;;35.25;32.50;;;;;;;;5063048;28;45619;-56
2021/12/15 07:40:00;;;;;;;;;35.25;29.75;;;;;;;;5074837;27;45482;-53
2021/12/15 07:42:34;;;;;;;;;26.75;25.75;;;;;;;;5076414;28;45291;-48
2021/12/15 07:45:00;;;;;;;;;33.75;29.25;;;;;;;;5076147;27;47348;-47
2021/12/15 07:47:25;;;;;;;;;30.25;26.50;;;;;;;;5072049;27;45574;-52
2021/12/15 07:49:50;;;;;;;;;29.75;28.00;;;;;;;;5074247;28;45547;-51
2021/12/15 07:52:15;;;;;;;;;33.75;27.00;;;;;;;;5065838;28;45645;-49
2021/12/15 07:54:40;;;;;;;;;34.00;28.75;;;;;;;;5055695;28;45493;-53
2021/12/15 07:57:07;;;;;;;;;30.75;26.00;;;;;;;;5060076;28;45439;-50
2021/12/15 07:59:33;;;;;;;;;35.50;31.50;;;;;;;;5070316;27;45264;-48
2021/12/15 08:01:58;;;;;;;;;26.25;25.00;;;;;;;;5075222;27;45602;-50
2021/12/15 08:04:23;;;;;;;;;27.50;27.50;;;;;;;;5076213;27;46336;-49
2021/12/15 08:06:49;;;;;;;;;34.75;29.25;;;;;;;;5074712;27;45325;-52
2021/12/15 08:09:14;;;;;;;;;29.50;27.00;;;;;;;;5075253;28;45263;-51
2021/12/15 08:11:40;;;;;;;;;32.75;27.00;;;;;;;;5057765;28;45295;-52
2021/12/15 08:14:05;;;;;;;;;29.75;29.75;;;;;;;;5055838;28;45774;-49
2021/12/15 08:16:30;;;;;;;;;19.25;17.00;;;;;;;;5058921;28;45300;-51
2021/12/15 08:18:56;;;;;;;;;24.75;24.75;;;;;;;;5058742;28;45559;-52
2021/12/15 08:21:21;;;;;;;;;35.25;30.25;;;;;;;;5059331;28;45426;-52
2021/12/15 08:23:47;;;;;;;;;33.00;30.25;;;;;;;;5058940;28;46270;-51
2021/12/15 08:26:12;;;;;;;;;30.00;28.25;;;;;;;;5058619;28;45410;-50
2021/12/15 08:28:37;;;;;;;;;25.50;24.00;;;;;;;;5058610;28;45442;-50
2021/12/15 08:31:03;;;;;;;;;30.50;24.75;;;;;;;;5058515;28;45371;-52
2021/12/15 08:33:28;;;;;;;;;26.75;25.25;;;;;;;;5059031;28;45918;-50
2021/12/15 08:35:57;;;;;;;;;31.25;28.75;;;;;;;;5059067;28;45315;-52
2021/12/15 08:38:23;;;;;;;;;21.50;20.00;;;;;;;;5059097;28;45407;-52
2021/12/15 08:40:51;;;;;;;;;23.25;21.25;;;;;;;;5058492;28;45442;-48
2021/12/15 08:43:16;;;;;;;;;22.75;20.50;;;;;;;;5058786;28;46228;-50
2021/12/15 08:45:43;;;;;;;;;23.00;21.00;;;;;;;;5058773;28;45283;-50
2021/12/15 08:48:10;;;;;;;;;23.00;20.00;;;;;;;;5058836;28;45319;-50
2021/12/15 08:50:36;;;;;;;;;24.00;24.00;;;;;;;;5058878;28;45185;-48
2021/12/15 08:53:02;;;;;;;;;18.00;16.50;;;;;;;;5057850;28;45347;-53
2021/12/15 08:55:28;;;;;;;;;20.50;19.00;;;;;;;;5058753;28;45398;-52
2021/12/15 08:57:56;;;;;;;;;19.75;19.75;;;;;;;;5058686;28;45291;-53
2021/12/15 09:00:24;;;;;;;;;21.50;20.00;;;;;;;;5058719;28;45380;-51
2021/12/15 09:02:50;;;;;;;;;19.50;17.75;;;;;;;;5057750;28;45406;-49
2021/12/15 09:05:20;;;;;;;;;23.00;21.25;;;;;;;;5058634;28;45279;-52
2021/12/15 09:07:46;;;;;;;;;24.50;22.25;;;;;;;;5057491;28;45252;-52
2021/12/15 09:10:11;;;;;;;;;21.50;20.00;;;;;;;;5057413;28;45546;-52
2021/12/15 09:12:38;;;;;;;;;25.00;22.75;;;;;;;;5057275;28;45443;-51
2021/12/15 09:15:06;;;;;;;;;22.25;20.75;;;;;;;;5056865;28;45251;-51
2021/12/15 09:17:32;;;;;;;;;20.00;17.25;;;;;;;;5057638;28;45306;-49
2021/12/15 09:19:57;;;;;;;;;21.75;21.25;;;;;;;;5057336;28;45484;-48
2021/12/15 09:22:22;;;;;;;;;22.50;19.25;;;;;;;;5057131;28;45381;-51
2021/12/15 09:24:47;;;;;;;;;19.75;18.25;;;;;;;;5056771;28;45371;-51
2021/12/15 09:27:15;;;;;;;;;20.25;19.50;;;;;;;;5056920;28;45367;-52
2021/12/15 09:29:40;;;;;;;;;22.00;18.00;;;;;;;;5055846;28;45454;-51
2021/12/15 09:32:06;;;;;;;;;28.25;22.00;;;;;;;;5056834;28;45449;-50
2021/12/15 09:34:31;;;;;;;;;22.25;17.75;;;;;;;;5057102;28;45299;-50
2021/12/15 09:36:57;;;;;;;;;27.00;23.25;;;;;;;;5056602;28;45359;-52
2021/12/15 09:39:23;;;;;;;;;15.00;14.25;;;;;;;;5055616;28;45520;-51
2021/12/15 09:41:49;;;;;;;;;22.25;19.00;;;;;;;;5089026;27;45610;-51
2021/12/15 09:44:17;;;;;;;;;19.50;16.50;;;;;;;;5056748;28;45395;-51
2021/12/15 10:03:03;;;;;;;;;21.25;19.00;;;;;;;;5056110;28;45642;-51
2021/12/15 10:11:00;;;;;;;;;24.00;20.50;;;;;;;;5155199;27;45456;-51
2021/12/15 10:19:26;;;;;;;;;22.25;20.75;;;;;;;;5134222;27;45246;-51
2021/12/15 10:21:57;;;;;;;;;21.00;21.00;;;;;;;;5134450;27;45331;-51
2021/12/15 10:24:26;;;;;;;;;23.50;21.75;;;;;;;;5134324;27;45215;-51
2021/12/15 10:26:56;;;;;;;;;25.00;22.75;;;;;;;;5134463;27;45391;-53
2021/12/15 10:29:21;;;;;;;;;24.50;24.25;;;;;;;;5134428;27;45602;-52
2021/12/15 10:31:55;;;;;;;;;30.50;27.75;;;;;;;;5133674;27;47238;-48
2021/12/15 10:34:21;;;;;;;;;23.75;22.50;;;;;;;;5134506;27;45232;-51
2021/12/15 10:36:47;;;;;;;;;24.50;23.00;;;;;;;;5134248;27;45272;-53
2021/12/15 10:39:12;;;;;;;;;24.50;21.00;;;;;;;;5134225;27;45518;-49
2021/12/15 10:41:39;;;;;;;;;23.25;23.25;;;;;;;;5133203;27;45445;-50
2021/12/15 10:44:13;;;;;;;;;30.25;27.00;;;;;;;;5134043;27;45470;-52
2021/12/15 10:46:50;;;;;;;;;31.00;26.50;;;;;;;;5134047;27;45355;-52
2021/12/15 10:49:24;;;;;;;;;30.25;28.75;;;;;;;;5134172;27;45437;-50
2021/12/15 10:51:54;;;;;;;;;33.00;31.00;;;;;;;;5133914;27;45442;-52
2021/12/15 10:54:25;;;;;;;;;29.00;24.50;;;;;;;;5133631;27;45260;-53
2021/12/15 10:57:03;;;;;;;;;29.50;24.00;;;;;;;;5133672;27;45453;-52
2021/12/15 10:59:32;;;;;;;;;22.00;21.50;;;;;;;;5133825;27;45538;-50
2021/12/15 11:01:58;;;;;;;;;20.75;20.75;;;;;;;;5115137;27;46816;-52
2021/12/15 11:04:27;;;;;;;;;26.25;23.50;;;;;;;;5111622;27;45355;-51
2021/12/15 11:07:11;;;;;;;;;23.00;20.25;;;;;;;;5111962;27;45359;-52
2021/12/15 11:09:39;;;;;;;;;22.00;19.75;;;;;;;;5090879;27;45384;-50
2021/12/15 11:12:25;;;;;;;;;19.50;18.25;;;;;;;;5092057;27;45361;-53
2021/12/15 11:15:00;;;;;;;;;20.75;19.50;;;;;;;;5091618;27;45339;-52
2021/12/15 11:17:29;;;;;;;;;19.50;17.75;;;;;;;;5092451;27;45365;-51
2021/12/15 11:20:00;;;;;;;;;25.25;22.00;;;;;;;;5091090;27;45368;-51
2021/12/15 11:22:34;;;;;;;;;18.25;17.50;;;;;;;;5078295;28;46709;-52
2021/12/15 11:25:00;;;;;;;;;19.00;16.67;;;;;;;;5078307;27;45437;-53
2021/12/15 11:27:26;;;;;;;;;20.33;19.33;;;;;;;;5078215;27;45385;-51
2021/12/15 11:29:51;;;;;;;;;20.33;18.67;;;;;;;;5078219;27;45377;-50
2021/12/15 11:32:35;;;;;;;;;38.00;35.75;;;;;;;;5077043;28;47248;-51
2021/12/15 11:35:05;;;;;;;;;54.50;45.50;;;;;;;;5078005;28;45452;-51
2021/12/15 11:37:49;;;;;;;;;27.00;27.00;;;;;;;;5077534;27;45431;-52
2021/12/15 11:40:15;;;;;;;;;15.50;15.50;;;;;;;;5076380;28;45363;-51
2021/12/15 11:42:41;;;;;;;;;26.00;23.50;;;;;;;;5077572;27;45712;-50
2021/12/15 11:45:08;;;;;;;;;27.50;25.00;;;;;;;;5078070;27;45349;-54
2021/12/15 11:47:33;;;;;;;;;32.50;28.00;;;;;;;;5077663;27;45326;-50
2021/12/15 11:50:13;;;;;;;;;24.50;22.75;;;;;;;;5077776;27;45341;-53
2021/12/15 11:52:40;;;;;;;;;26.75;26.75;;;;;;;;5077707;27;45337;-53
2021/12/15 11:55:07;;;;;;;;;23.50;21.00;;;;;;;;5077829;27;45416;-49
2021/12/15 11:57:32;;;;;;;;;23.75;23.25;;;;;;;;5095544;27;45239;-53
2021/12/15 11:59:59;;;;;;;;;25.75;25.75;;;;;;;;5097859;27;45267;-50
2021/12/15 12:02:26;;;;;;;;;16.75;12.25;;;;;;;;5098496;27;45278;-54
2021/12/15 12:04:53;;;;;;;;;21.75;21.75;;;;;;;;5098369;27;45254;-53
2021/12/15 12:07:21;;;;;;;;;20.33;20.33;;;;;;;;5098122;27;45405;-52
2021/12/15 12:09:57;;;;;;;;;22.25;21.50;;;;;;;;5096994;27;45516;-50
2021/12/15 12:12:28;;;;;;;;;24.50;22.25;;;;;;;;5098181;27;46039;-53
2021/12/15 12:14:53;;;;;;;;;21.00;19.00;;;;;;;;5098005;27;45315;-51
2021/12/15 12:17:24;;;;;;;;;30.25;27.25;;;;;;;;5097713;27;45380;-52
2021/12/15 12:19:52;;;;;;;;;24.00;22.25;;;;;;;;5097859;27;45560;-53
2021/12/15 12:22:18;;;;;;;;;25.00;20.00;;;;;;;;5097379;27;46199;-52
2021/12/15 12:24:45;;;;;;;;;20.00;18.00;;;;;;;;5097880;27;45324;-49
2021/12/15 12:27:10;;;;;;;;;19.33;16.33;;;;;;;;5098074;27;45357;-51
2021/12/15 12:29:36;;;;;;;;;14.00;14.00;;;;;;;;5096840;27;45602;-53
2021/12/15 12:32:02;;;;;;;;;45.00;39.75;;;;;;;;5096185;27;46220;-53
2021/12/15 12:34:27;;;;;;;;;16.00;16.00;;;;;;;;5097181;27;45446;-52
2021/12/15 12:36:53;;;;;;;;;11.00;10.00;;;;;;;;5098180;27;45348;-54
2021/12/15 12:39:21;;;;;;;;;14.00;12.67;;;;;;;;5098026;27;45243;-51
2021/12/15 12:41:49;;;;;;;;;8.00;8.00;;;;;;;;5097757;27;45609;-53
2021/12/15 12:44:14;;;;;;;;;17.33;17.33;;;;;;;;5097146;27;45368;-49
2021/12/15 12:46:47;;;;;;;;;10.67;9.67;;;;;;;;5097792;27;45373;-50
2021/12/15 13:00:36;;;;;;;;;9.67;9.00;;;;;;;;5097587;27;45351;-52
2021/12/15 13:03:05;;;;;;;;;8.33;8.00;;;;;;;;5097668;27;47221;-51
2021/12/15 13:05:31;;;;;;;;;10.00;9.67;;;;;;;;5096967;27;45454;-51
2021/12/15 13:07:58;;;;;;;;;9.00;7.00;;;;;;;;5098004;27;45361;-53
2021/12/15 13:10:46;;;;;;;;;8.67;8.67;;;;;;;;5097097;27;45558;-51
2021/12/15 13:13:12;;;;;;;;;9.33;8.33;;;;;;;;5086104;27;46483;-53
2021/12/15 13:15:37;;;;;;;;;14.00;12.33;;;;;;;;5096815;27;45407;-50
2021/12/15 13:18:11;;;;;;;;;10.00;9.67;;;;;;;;5097500;27;45337;-53
2021/12/15 13:20:36;;;;;;;;;8.67;8.67;;;;;;;;5097435;27;45311;-54
2021/12/15 13:23:18;;;;;;;;;10.33;10.33;;;;;;;;5097225;27;45713;-54
2021/12/15 13:31:15;;;;;;;;;6.00;6.00;;;;;;;;5097337;27;45306;-53
2021/12/15 13:33:43;;;;;;;;;4.00;4.00;;;;;;;;5097111;27;45470;-53
2021/12/15 13:36:17;;;;;;;;;7.00;7.00;;;;;;;;5097283;27;45454;-51
2021/12/15 13:38:45;;;;;;;;;11.00;10.00;;;;;;;;5096605;27;45343;-50
2021/12/15 13:41:21;;;;;;;;;8.00;8.00;;;;;;;;5096945;27;45253;-53
2021/12/15 13:43:49;;;;;;;;;9.33;9.33;;;;;;;;5096639;27;46205;-52
2021/12/15 13:46:29;;;;;;;;;7.00;7.00;;;;;;;;5096857;27;45589;-53
2021/12/15 13:49:03;;;;;;;;;10.00;7.67;;;;;;;;5096259;27;45317;-58
2021/12/15 13:51:47;;;;;;;;;7.33;5.67;;;;;;;;5097089;27;45243;-51
2021/12/15 13:54:23;;;;;;;;;5.33;4.00;;;;;;;;5096678;27;46204;-52
2021/12/15 13:56:50;;;;;;;;;5.33;5.33;;;;;;;;5096680;27;45350;-52
2021/12/15 13:59:32;;;;;;;;;1.50;1.50;;;;;;;;5096581;27;45312;-52
2021/12/15 14:02:10;;;;;;;;;4.00;4.00;;;;;;;;5096890;27;45336;-52
2021/12/15 14:04:43;;;;;;;;;5.33;5.33;;;;;;;;5096525;27;45441;-52
2021/12/15 14:07:27;;;;;;;;;2.00;2.00;;;;;;;;5096691;27;45368;-52
2021/12/15 14:09:52;;;;;;;;;3.00;2.00;;;;;;;;5095973;27;45416;-53
2021/12/15 14:12:37;;;;;;;;;12.00;10.33;;;;;;;;5096213;27;45468;-52
2021/12/15 14:15:03;;;;;;;;;6.00;4.67;;;;;;;;5096334;27;46024;-53
2021/12/15 14:17:28;;;;;;;;;4.67;4.67;;;;;;;;5096367;27;45370;-50
2021/12/15 14:19:53;;;;;;;;;3.33;3.33;;;;;;;;5096379;27;45455;-49
2021/12/15 14:22:19;;;;;;;;;7.00;7.00;;;;;;;;5096060;27;45329;-51
2021/12/15 14:24:44;;;;;;;;;7.33;5.33;;;;;;;;5096314;27;45381;-51
2021/12/15 14:27:10;;;;;;;;;8.67;7.67;;;;;;;;5096259;27;45255;-53
2021/12/15 14:29:35;;;;;;;;;5.00;5.00;;;;;;;;5096457;27;45262;-52
2021/12/15 14:32:03;;;;;;;;;5.67;5.67;;;;;;;;5096613;27;45508;-53
2021/12/15 14:34:33;;;;;;;;;7.00;7.00;;;;;;;;5096140;27;45228;-53
2021/12/15 14:37:07;;;;;;;;;8.00;8.00;;;;;;;;5096573;27;45431;-51
2021/12/15 14:39:35;;;;;;;;;11.00;10.00;;;;;;;;5096272;27;45322;-50
2021/12/15 14:42:03;;;;;;;;;7.67;7.67;;;;;;;;5096176;27;45504;-50
2021/12/15 14:44:30;;;;;;;;;10.00;8.67;;;;;;;;5095168;27;47249;-52
2021/12/15 14:46:58;;;;;;;;;10.00;8.00;;;;;;;;5095925;27;45309;-51
2021/12/15 14:49:43;;;;;;;;;9.33;9.33;;;;;;;;5096257;27;45436;-51
2021/12/15 14:52:32;;;;;;;;;9.67;9.33;;;;;;;;5095933;27;45447;-52
2021/12/15 14:54:59;;;;;;;;;13.00;10.33;;;;;;;;5084123;27;45531;-53
2021/12/15 14:57:26;;;;;;;;;7.33;7.33;;;;;;;;5099441;27;45380;-52
2021/12/15 15:00:06;;;;;;;;;9.67;8.67;;;;;;;;5099683;27;45237;-53
2021/12/15 15:02:33;;;;;;;;;7.67;7.67;;;;;;;;5099685;27;45487;-52
2021/12/15 15:05:01;;;;;;;;;8.00;5.33;;;;;;;;5099305;27;46211;-53
2021/12/15 15:07:31;;;;;;;;;11.00;9.67;;;;;;;;5098934;27;45313;-52
2021/12/15 15:09:57;;;;;;;;;9.33;7.33;;;;;;;;5099182;27;45286;-54
2021/12/15 15:12:24;;;;;;;;;9.67;8.67;;;;;;;;5099571;27;45225;-53
2021/12/15 15:14:56;;;;;;;;;12.33;10.33;;;;;;;;5099099;27;45991;-52
2021/12/15 15:17:32;;;;;;;;;8.00;8.00;;;;;;;;5098626;27;45377;-51
2021/12/15 15:20:11;;;;;;;;;9.00;9.00;;;;;;;;5098131;27;45290;-53
2021/12/15 15:22:37;;;;;;;;;12.33;10.67;;;;;;;;5099261;27;45313;-53
2021/12/15 15:25:04;;;;;;;;;9.00;9.00;;;;;;;;5099233;27;45356;-52
2021/12/15 15:27:29;;;;;;;;;9.00;8.33;;;;;;;;5097400;27;45353;-52
2021/12/15 15:29:57;;;;;;;;;9.67;9.33;;;;;;;;5097835;27;45266;-53
2021/12/15 15:32:24;;;;;;;;;9.33;9.33;;;;;;;;5099367;27;45253;-52
2021/12/15 15:34:50;;;;;;;;;10.00;10.00;;;;;;;;5098774;27;45380;-55
2021/12/15 15:37:18;;;;;;;;;11.00;8.00;;;;;;;;5098902;27;46195;-55
2021/12/15 15:39:44;;;;;;;;;5.33;5.33;;;;;;;;5098187;27;45342;-53
2021/12/15 15:42:18;;;;;;;;;11.00;10.33;;;;;;;;5098798;27;45321;-52
2021/12/15 15:44:43;;;;;;;;;10.00;10.00;;;;;;;;5098944;27;46241;-53
2021/12/15 15:47:19;;;;;;;;;8.00;8.00;;;;;;;;5098911;27;45387;-52
2021/12/15 15:49:58;;;;;;;;;10.33;10.33;;;;;;;;5098599;27;45477;-54
2021/12/15 15:52:24;;;;;;;;;6.67;6.33;;;;;;;;5098825;27;45526;-53